createdAt,value
2023-02-27T00:23:41.480Z,1026.41
2023-02-27T00:24:12.266Z,1026.41
2023-02-27T00:24:46.274Z,1026.41
2023-02-27T00:25:16.529Z,1026.41
2023-02-27T00:25:49.573Z,1026.68
2023-02-27T00:26:15.968Z,1026.68
2023-02-27T00:26:47.818Z,1026.79
2023-02-27T00:27:17.749Z,1026.79
2023-02-27T00:27:49.642Z,1026.41
2023-02-27T00:28:22.223Z,1026.41
2023-02-27T00:28:52.359Z,1026.11
2023-02-27T00:29:22.629Z,1026.11
2023-02-27T00:29:53.661Z,1026.68
2023-02-27T00:30:26.368Z,1026.68
2023-02-27T00:30:57.135Z,1026.31
2023-02-27T00:31:27.441Z,1026.31
2023-02-27T00:31:57.168Z,1026.31
2023-02-27T00:32:28.811Z,1026.31
2023-02-27T00:32:59.270Z,1026.51
2023-02-27T00:33:30.378Z,1026.89
2023-02-27T00:34:01.791Z,1026.89
2023-02-27T00:34:32.592Z,1026.41
2023-02-27T00:35:05.868Z,1026.41
2023-02-27T00:35:35.904Z,1026.51
2023-02-27T00:36:06.475Z,1026.51
2023-02-27T00:36:36.940Z,1026.58
2023-02-27T00:37:07.562Z,1026.58
2023-02-27T00:37:38.241Z,1026.51
2023-02-27T00:38:09.360Z,1026.51
2023-02-27T00:38:40.652Z,1026.68
2023-02-27T00:39:10.596Z,1026.68
2023-02-27T00:39:41.965Z,1026.51
2023-02-27T00:40:14.264Z,1026.51
2023-02-27T00:40:45.139Z,1026.41
2023-02-27T00:41:15.531Z,1026.41
2023-02-27T00:41:46.053Z,1026.58
2023-02-27T00:42:17.237Z,1026.58
2023-02-27T00:42:48.001Z,1026.58
2023-02-27T00:43:19.328Z,1026.58
2023-02-27T00:43:50.116Z,1026.51
2023-02-27T00:44:20.956Z,1026.51
2023-02-27T00:44:52.643Z,1026.51
2023-02-27T00:45:23.466Z,1026.51
2023-02-27T00:45:54.632Z,1026.51
2023-02-27T00:46:25.956Z,1026.51
2023-02-27T00:46:56.315Z,1026.58
2023-02-27T00:47:27.103Z,1026.58
2023-02-27T00:47:58.217Z,1026.58
2023-02-27T00:48:29.106Z,1026.58
2023-02-27T00:49:00.605Z,1026.58
2023-02-27T00:49:31.227Z,1026.41
2023-02-27T00:50:02.256Z,1026.41
2023-02-27T00:50:33.500Z,1026.58
2023-02-27T00:51:05.001Z,1026.58
2023-02-27T00:51:35.865Z,1026.41
2023-02-27T00:52:06.135Z,1026.41
2023-02-27T00:52:37.005Z,1026.51
2023-02-27T00:53:07.665Z,1026.51
2023-02-27T00:53:39.549Z,1026.51
2023-02-27T00:54:11.006Z,1026.51
2023-02-27T00:54:41.218Z,1026.58
2023-02-27T00:55:12.056Z,1026.58
2023-02-27T00:55:43.730Z,1026.41
2023-02-27T00:56:15.765Z,1026.41
2023-02-27T00:56:45.903Z,1026.41
2023-02-27T00:57:16.136Z,1026.41
2023-02-27T00:57:47.133Z,1026.68
2023-02-27T00:58:18.111Z,1026.68
2023-02-27T00:58:49.368Z,1026.51
2023-02-27T00:59:20.030Z,1026.51
2023-02-27T00:59:51.439Z,1026.58
2023-02-27T01:00:55.286Z,1026.58
2023-02-27T01:01:23.601Z,1026.51
2023-02-27T01:01:55.492Z,1026.51
2023-02-27T01:02:27.123Z,1026.51
2023-02-27T01:02:57.754Z,1026.58
2023-02-27T01:03:29.204Z,1026.58
2023-02-27T01:03:59.276Z,1026.51
2023-02-27T01:04:30.849Z,1026.58
2023-02-27T01:05:19.100Z,1026.58
2023-02-27T01:05:31.803Z,1026.58
2023-02-27T01:06:03.367Z,1026.58
2023-02-27T01:06:33.967Z,1026.51
2023-02-27T01:07:05.339Z,1026.51
2023-02-27T01:07:37.264Z,1026.51
2023-02-27T01:08:22.609Z,1026.51
2023-02-27T01:10:28.523Z,1026.51
2023-02-27T01:10:45.007Z,1026.51
2023-02-27T01:11:15.111Z,1026.51
2023-02-27T01:11:56.176Z,1026.58
2023-02-27T01:12:30.142Z,1026.58
2023-02-27T01:12:46.648Z,1026.68
2023-02-27T01:13:17.536Z,1026.68
2023-02-27T01:13:51.583Z,1026.51
2023-02-27T01:14:20.487Z,1026.51
2023-02-27T01:14:51.329Z,1026.51
2023-02-27T01:15:23.875Z,1026.51
2023-02-27T01:16:10.256Z,1026.68
2023-02-27T01:16:23.524Z,1026.68
2023-02-27T01:16:58.366Z,1026.58
2023-02-27T01:17:25.631Z,1026.58
2023-02-27T01:17:56.353Z,1026.51
2023-02-27T01:18:28.037Z,1026.51
2023-02-27T01:18:59.717Z,1026.41
2023-02-27T01:19:30.354Z,1026.58
2023-02-27T01:20:01.357Z,1026.58
2023-02-27T01:20:32.196Z,1026.41
2023-02-27T01:21:02.983Z,1026.41
2023-02-27T01:21:33.787Z,1026.79
2023-02-27T01:22:04.459Z,1026.79
2023-02-27T01:22:35.029Z,1026.51
2023-02-27T01:23:07.619Z,1026.51
2023-02-27T01:23:37.897Z,1026.58
2023-02-27T01:24:09.452Z,1026.58
2023-02-27T01:24:40.277Z,1026.51
2023-02-27T01:25:11.459Z,1026.51
2023-02-27T01:25:42.386Z,1026.68
2023-02-27T01:26:30.798Z,1026.58
2023-02-27T01:26:43.558Z,1026.58
2023-02-27T01:27:14.243Z,1026.58
2023-02-27T01:27:46.039Z,1026.58
2023-02-27T01:28:16.757Z,1026.58
2023-02-27T01:28:48.157Z,1026.51
2023-02-27T01:29:25.333Z,1026.51
2023-02-27T01:29:51.574Z,1026.51
2023-02-27T01:30:26.039Z,1026.51
2023-02-27T01:31:28.775Z,1026.51
2023-02-27T01:31:59.546Z,1026.51
2023-02-27T01:32:25.168Z,1026.51
2023-02-27T01:32:56.103Z,1026.51
2023-02-27T01:33:26.658Z,1026.51
2023-02-27T01:34:02.411Z,1026.58
2023-02-27T01:34:29.674Z,1026.58
2023-02-27T01:35:35.921Z,1026.58
2023-02-27T01:36:02.308Z,1026.68
2023-02-27T01:36:33.369Z,1026.51
2023-02-27T01:37:03.813Z,1026.51
2023-02-27T01:37:34.543Z,1026.58
2023-02-27T01:39:16.483Z,1026.58
2023-02-27T01:39:39.424Z,1026.58
2023-02-27T01:40:12.787Z,1026.58
2023-02-27T01:40:41.475Z,1026.51
2023-02-27T01:41:12.140Z,1026.51
2023-02-27T01:41:42.623Z,1026.51
2023-02-27T01:42:13.274Z,1026.51
2023-02-27T01:42:45.584Z,1026.68
2023-02-27T01:43:15.847Z,1026.68
2023-02-27T01:43:46.518Z,1026.68
2023-02-27T01:44:17.947Z,1026.68
2023-02-27T01:44:50.095Z,1026.51
2023-02-27T01:45:21.623Z,1026.51
2023-02-27T01:45:51.736Z,1026.58
2023-02-27T01:46:23.014Z,1026.58
2023-02-27T01:47:10.285Z,1026.41
2023-02-27T01:47:23.590Z,1026.41
2023-02-27T01:47:54.972Z,1026.51
2023-02-27T01:48:25.428Z,1026.51
2023-02-27T01:48:56.328Z,1026.51
2023-02-27T01:49:28.228Z,1026.51
2023-02-27T01:49:59.906Z,1026.68
2023-02-27T01:50:31.357Z,1026.51
2023-02-27T01:51:01.856Z,1026.51
2023-02-27T01:51:32.288Z,1026.58
2023-02-27T01:52:02.755Z,1026.58
2023-02-27T01:52:33.342Z,1026.51
2023-02-27T01:53:35.785Z,1026.51
2023-02-27T01:54:06.361Z,1026.51
2023-02-27T01:54:38.276Z,1026.58
2023-02-27T01:55:09.311Z,1026.58
2023-02-27T01:55:40.142Z,1026.68
2023-02-27T01:56:11.597Z,1026.68
2023-02-27T01:56:42.185Z,1026.58
2023-02-27T01:57:12.505Z,1026.58
2023-02-27T01:57:44.871Z,1026.79
2023-02-27T01:58:14.356Z,1026.79
2023-02-27T01:59:04.175Z,1026.79
2023-02-27T01:59:18.307Z,1026.79
2023-02-27T01:59:49.052Z,1026.58
2023-02-27T02:00:22.205Z,1026.58
2023-02-27T02:00:52.274Z,1026.68
2023-02-27T02:01:21.169Z,1026.68
2023-02-27T02:01:55.055Z,1026.51
2023-02-27T02:02:42.886Z,1026.51
2023-02-27T02:03:09.702Z,1026.51
2023-02-27T02:03:40.639Z,1026.58
2023-02-27T02:04:13.988Z,1026.58
2023-02-27T02:08:48.054Z,1026.79
2023-02-27T02:09:08.704Z,1026.58
2023-02-27T02:09:22.952Z,1026.58
2023-02-27T02:09:55.585Z,1026.68
2023-02-27T02:10:23.211Z,1026.68
2023-02-27T02:10:53.861Z,1026.79
2023-02-27T02:11:58.581Z,1026.58
2023-02-27T02:12:28.318Z,1026.58
2023-02-27T02:12:59.385Z,1026.51
2023-02-27T02:13:33.092Z,1026.51
2023-02-27T02:14:00.823Z,1026.58
2023-02-27T02:14:32.393Z,1026.58
2023-02-27T02:15:04.734Z,1026.58
2023-02-27T02:15:32.635Z,1026.58
2023-02-27T02:16:04.026Z,1026.58
2023-02-27T02:16:34.474Z,1026.51
2023-02-27T02:17:10.037Z,1026.51
2023-02-27T02:17:37.623Z,1026.79
2023-02-27T02:18:08.735Z,1026.79
2023-02-27T02:18:39.934Z,1026.51
2023-02-27T02:19:10.658Z,1026.51
2023-02-27T02:19:41.386Z,1026.51
2023-02-27T02:20:14.782Z,1026.51
2023-02-27T02:20:42.708Z,1026.51
2023-02-27T02:21:13.583Z,1026.51
2023-02-27T02:21:45.348Z,1026.68
2023-02-27T02:22:16.975Z,1026.68
2023-02-27T02:23:18.721Z,1026.41
2023-02-27T02:23:49.803Z,1026.51
2023-02-27T02:24:21.018Z,1026.51
2023-02-27T02:24:52.820Z,1026.58
2023-02-27T02:25:24.861Z,1026.58
2023-02-27T02:25:55.271Z,1026.51
2023-02-27T02:26:25.018Z,1026.51
2023-02-27T02:26:55.452Z,1026.58
2023-02-27T02:27:27.091Z,1026.58
2023-02-27T02:27:58.143Z,1026.58
2023-02-27T02:28:29.851Z,1026.58
2023-02-27T02:29:01.829Z,1026.68
2023-02-27T02:29:31.775Z,1026.58
2023-02-27T02:30:04.008Z,1026.58
2023-02-27T02:30:33.896Z,1026.58
2023-02-27T02:31:13.303Z,1026.58
2023-02-27T02:31:37.429Z,1026.68
2023-02-27T02:32:07.460Z,1026.68
2023-02-27T02:32:37.515Z,1026.58
2023-02-27T02:33:09.076Z,1026.58
2023-02-27T02:33:39.757Z,1026.51
2023-02-27T02:34:11.465Z,1026.51
2023-02-27T02:34:41.601Z,1026.68
2023-02-27T02:35:24.567Z,1026.68
2023-02-27T02:35:53.146Z,1026.79
2023-02-27T02:36:14.178Z,1026.79
2023-02-27T02:36:47.602Z,1026.58
2023-02-27T02:37:16.502Z,1026.58
2023-02-27T02:37:47.723Z,1026.51
2023-02-27T02:40:21.333Z,1026.51
2023-02-27T02:41:24.306Z,1026.58
2023-02-27T02:41:55.846Z,1026.79
2023-02-27T02:42:25.837Z,1026.79
2023-02-27T02:42:57.342Z,1026.68
2023-02-27T02:43:28.646Z,1026.68
2023-02-27T02:43:59.092Z,1026.68
2023-02-27T02:44:31.018Z,1026.51
2023-02-27T02:45:03.114Z,1026.51
2023-02-27T02:45:33.628Z,1026.79
2023-02-27T02:46:03.739Z,1026.79
2023-02-27T02:46:34.708Z,1026.79
2023-02-27T02:47:04.821Z,1026.79
2023-02-27T02:47:37.081Z,1026.41
2023-02-27T02:48:07.156Z,1026.41
2023-02-27T02:48:38.534Z,1026.51
2023-02-27T02:49:11.940Z,1026.51
2023-02-27T02:49:40.468Z,1026.79
2023-02-27T02:50:11.796Z,1026.79
2023-02-27T02:50:42.656Z,1026.41
2023-02-27T02:51:44.463Z,1026.68
2023-02-27T02:52:15.223Z,1026.68
2023-02-27T02:52:46.718Z,1026.58
2023-02-27T02:53:17.891Z,1026.58
2023-02-27T02:53:48.656Z,1026.51
2023-02-27T02:54:18.994Z,1026.51
2023-02-27T02:54:50.901Z,1026.58
2023-02-27T02:55:21.720Z,1026.58
2023-02-27T02:55:52.146Z,1026.68
2023-02-27T02:56:23.770Z,1026.68
2023-02-27T02:56:55.228Z,1026.58
2023-02-27T02:57:25.663Z,1026.58
2023-02-27T02:57:56.427Z,1026.51
2023-02-27T02:58:27.752Z,1026.51
2023-02-27T02:58:58.477Z,1026.58
2023-02-27T02:59:28.832Z,1026.58
2023-02-27T03:00:35.365Z,1026.68
2023-02-27T03:02:31.922Z,1026.68
2023-02-27T03:02:36.645Z,1026.41
2023-02-27T03:04:30.815Z,1026.51
2023-02-27T03:04:49.474Z,1026.58
2023-02-27T03:05:17.228Z,1026.58
2023-02-27T03:05:42.095Z,1026.51
2023-02-27T03:06:13.889Z,1026.51
2023-02-27T03:06:44.203Z,1026.58
2023-02-27T03:07:15.365Z,1026.58
2023-02-27T03:07:45.732Z,1026.51
2023-02-27T03:08:16.368Z,1026.51
2023-02-27T03:08:48.657Z,1026.58
2023-02-27T03:09:31.152Z,1026.58
2023-02-27T03:09:53.999Z,1026.79
2023-02-27T03:10:21.147Z,1026.79
2023-02-27T03:10:51.461Z,1026.51
2023-02-27T03:11:22.252Z,1026.51
2023-02-27T03:11:53.392Z,1026.51
2023-02-27T03:12:24.203Z,1026.51
2023-02-27T03:12:55.428Z,1026.51
2023-02-27T03:13:25.991Z,1026.51
2023-02-27T03:13:56.980Z,1026.31
2023-02-27T03:14:28.265Z,1026.31
2023-02-27T03:14:59.396Z,1026.68
2023-02-27T03:15:32.340Z,1026.68
2023-02-27T03:16:01.530Z,1026.68
2023-02-27T03:16:32.769Z,1026.79
2023-02-27T03:17:03.454Z,1026.79
2023-02-27T03:17:34.096Z,1026.58
2023-02-27T03:18:04.946Z,1026.58
2023-02-27T03:18:36.445Z,1026.68
2023-02-27T03:19:07.727Z,1026.68
2023-02-27T03:19:38.146Z,1026.68
2023-02-27T03:20:09.424Z,1026.68
2023-02-27T03:20:39.824Z,1026.89
2023-02-27T03:21:11.288Z,1026.89
2023-02-27T03:21:42.672Z,1026.58
2023-02-27T03:22:13.448Z,1026.58
2023-02-27T03:22:45.411Z,1026.68
2023-02-27T03:23:14.884Z,1026.68
2023-02-27T03:23:45.682Z,1026.68
2023-02-27T03:24:16.701Z,1026.68
2023-02-27T03:24:48.662Z,1026.68
2023-02-27T03:25:19.679Z,1026.68
2023-02-27T03:25:50.927Z,1026.51
2023-02-27T03:26:21.825Z,1026.51
2023-02-27T03:26:52.310Z,1026.68
2023-02-27T03:27:23.555Z,1026.68
2023-02-27T03:27:54.484Z,1026.58
2023-02-27T03:28:25.593Z,1026.58
2023-02-27T03:28:55.916Z,1026.79
2023-02-27T03:29:27.841Z,1026.79
2023-02-27T03:29:58.219Z,1026.79
2023-02-27T03:30:31.352Z,1026.79
2023-02-27T03:31:00.357Z,1026.68
2023-02-27T03:31:32.505Z,1026.89
2023-02-27T03:32:03.134Z,1026.89
2023-02-27T03:32:34.037Z,1026.99
2023-02-27T03:33:05.324Z,1026.99
2023-02-27T03:33:36.388Z,1026.79
2023-02-27T03:34:07.319Z,1026.79
2023-02-27T03:34:37.503Z,1026.79
2023-02-27T03:35:08.582Z,1026.79
2023-02-27T03:36:10.118Z,1026.89
2023-02-27T03:36:41.921Z,1026.89
2023-02-27T03:37:12.706Z,1026.89
2023-02-27T03:37:42.716Z,1026.79
2023-02-27T03:38:14.629Z,1026.79
2023-02-27T03:38:45.231Z,1026.68
2023-02-27T03:39:16.542Z,1026.68
2023-02-27T03:39:47.259Z,1026.68
2023-02-27T03:40:18.655Z,1026.68
2023-02-27T03:40:49.176Z,1026.89
2023-02-27T03:41:51.622Z,1026.89
2023-02-27T03:42:23.991Z,1026.89
2023-02-27T03:42:53.499Z,1026.79
2023-02-27T03:43:24.148Z,1026.79
2023-02-27T03:43:54.849Z,1026.68
2023-02-27T03:44:26.568Z,1026.68
2023-02-27T03:44:56.971Z,1026.89
2023-02-27T03:45:28.666Z,1026.89
2023-02-27T03:46:17.230Z,1026.99
2023-02-27T03:46:30.448Z,1026.99
2023-02-27T03:47:01.155Z,1026.99
2023-02-27T03:47:32.566Z,1026.79
2023-02-27T03:48:04.382Z,1026.79
2023-02-27T03:48:33.921Z,1026.79
2023-02-27T03:49:05.446Z,1026.79
2023-02-27T03:49:35.994Z,1026.79
2023-02-27T03:50:07.525Z,1026.79
2023-02-27T03:50:38.008Z,1027.09
2023-02-27T03:51:09.004Z,1027.09
2023-02-27T03:51:42.078Z,1026.99
2023-02-27T03:52:11.642Z,1026.99
2023-02-27T03:52:42.667Z,1026.79
2023-02-27T03:53:13.673Z,1026.79
2023-02-27T03:53:43.845Z,1026.89
2023-02-27T03:54:15.440Z,1026.89
2023-02-27T03:55:03.765Z,1026.99
2023-02-27T03:55:18.547Z,1026.99
2023-02-27T03:55:48.764Z,1026.79
2023-02-27T03:56:19.388Z,1026.79
2023-02-27T03:56:50.893Z,1026.99
2023-02-27T03:57:22.085Z,1026.99
2023-02-27T03:57:52.897Z,1026.99
2023-02-27T03:58:24.167Z,1026.99
2023-02-27T03:58:54.723Z,1026.89
2023-02-27T03:59:25.749Z,1026.89
2023-02-27T03:59:56.645Z,1027.29
2023-02-27T04:00:59.240Z,1026.99
2023-02-27T04:01:30.543Z,1026.99
2023-02-27T04:02:00.236Z,1026.79
2023-02-27T04:02:31.526Z,1027.09
2023-02-27T04:03:03.220Z,1027.09
2023-02-27T04:03:34.784Z,1026.99
2023-02-27T04:04:05.919Z,1026.99
2023-02-27T04:04:36.439Z,1026.99
2023-02-27T04:05:07.219Z,1026.99
2023-02-27T04:05:39.207Z,1027.09
2023-02-27T04:06:07.829Z,1027.09
2023-02-27T04:06:40.671Z,1026.99
2023-02-27T04:07:09.678Z,1026.99
2023-02-27T04:07:41.716Z,1027.19
2023-02-27T04:08:12.596Z,1027.19
2023-02-27T04:08:43.357Z,1027.19
2023-02-27T04:09:14.977Z,1027.19
2023-02-27T04:09:45.545Z,1027.09
2023-02-27T04:10:17.520Z,1027.09
2023-02-27T04:10:47.997Z,1027.19
2023-02-27T04:11:19.038Z,1027.19
2023-02-27T04:11:50.434Z,1026.99
2023-02-27T04:12:22.648Z,1026.99
2023-02-27T04:12:51.664Z,1027.09
2023-02-27T04:13:23.749Z,1027.09
2023-02-27T04:13:54.004Z,1026.99
2023-02-27T04:14:24.329Z,1026.99
2023-02-27T04:14:55.889Z,1027.19
2023-02-27T04:15:26.279Z,1027.19
2023-02-27T04:15:57.688Z,1027.39
2023-02-27T04:16:28.120Z,1027.39
2023-02-27T04:17:31.174Z,1027.29
2023-02-27T04:18:01.558Z,1027.29
2023-02-27T04:18:32.991Z,1027.19
2023-02-27T04:19:04.622Z,1027.19
2023-02-27T04:19:35.106Z,1027.19
2023-02-27T04:20:06.884Z,1027.19
2023-02-27T04:20:37.179Z,1027.19
2023-02-27T04:21:07.975Z,1027.19
2023-02-27T04:21:38.513Z,1027.19
2023-02-27T04:22:08.871Z,1027.19
2023-02-27T04:22:41.358Z,1027.19
2023-02-27T04:23:12.266Z,1027.19
2023-02-27T04:23:43.135Z,1027.39
2023-02-27T04:24:13.274Z,1027.39
2023-02-27T04:24:44.578Z,1027.19
2023-02-27T04:25:16.278Z,1027.19
2023-02-27T04:25:46.688Z,1027.19
2023-02-27T04:26:48.490Z,1027.09
2023-02-27T04:27:19.394Z,1027.09
2023-02-27T04:27:50.354Z,1027.19
2023-02-27T04:28:22.845Z,1027.19
2023-02-27T04:28:52.717Z,1027.19
2023-02-27T04:29:24.018Z,1027.19
2023-02-27T04:29:54.308Z,1027.09
2023-02-27T04:30:29.776Z,1027.09
2023-02-27T04:30:56.585Z,1027.29
2023-02-27T04:31:27.986Z,1027.29
2023-02-27T04:31:58.752Z,1027.19
2023-02-27T04:32:29.038Z,1027.19
2023-02-27T04:33:00.389Z,1027.19
2023-02-27T04:33:31.485Z,1027.09
2023-02-27T04:34:03.577Z,1027.09
2023-02-27T04:34:34.963Z,1027.09
2023-02-27T04:35:36.173Z,1027.19
2023-02-27T04:36:07.713Z,1027.19
2023-02-27T04:36:37.931Z,1027.19
2023-02-27T04:37:08.695Z,1027.19
2023-02-27T04:37:39.109Z,1027.19
2023-02-27T04:38:10.136Z,1027.19
2023-02-27T04:38:41.807Z,1027.39
2023-02-27T04:39:12.585Z,1027.39
2023-02-27T04:39:44.062Z,1027.39
2023-02-27T04:40:14.975Z,1027.39
2023-02-27T04:40:45.708Z,1027.50
2023-02-27T04:41:15.695Z,1027.50
2023-02-27T04:41:47.011Z,1027.39
2023-02-27T04:42:18.177Z,1027.39
2023-02-27T04:42:48.955Z,1027.09
2023-02-27T04:43:20.177Z,1027.09
2023-02-27T04:43:51.419Z,1027.50
2023-02-27T04:44:53.591Z,1027.19
2023-02-27T04:45:44.510Z,1027.60
2023-02-27T04:45:55.383Z,1027.60
2023-02-27T04:46:26.868Z,1027.60
2023-02-27T04:47:14.753Z,1027.29
2023-02-27T04:47:27.919Z,1027.29
2023-02-27T04:48:30.468Z,1027.39
2023-02-27T04:49:02.800Z,1027.39
2023-02-27T04:49:34.928Z,1027.50
2023-02-27T04:50:04.286Z,1027.50
2023-02-27T04:50:35.547Z,1027.50
2023-02-27T04:51:05.956Z,1027.50
2023-02-27T04:51:35.785Z,1027.50
2023-02-27T04:52:06.573Z,1027.50
2023-02-27T04:52:38.720Z,1027.39
2023-02-27T04:53:09.272Z,1027.39
2023-02-27T04:53:41.160Z,1027.50
2023-02-27T04:54:12.049Z,1027.50
2023-02-27T04:54:41.509Z,1027.60
2023-02-27T04:55:13.826Z,1027.60
2023-02-27T04:55:44.281Z,1027.29
2023-02-27T04:56:15.227Z,1027.29
2023-02-27T04:56:45.354Z,1027.39
2023-02-27T04:57:16.810Z,1027.39
2023-02-27T04:57:47.484Z,1027.50
2023-02-27T04:58:18.274Z,1027.50
2023-02-27T04:58:49.241Z,1027.60
2023-02-27T04:59:20.449Z,1027.60
2023-02-27T04:59:51.404Z,1027.39
2023-02-27T05:00:22.901Z,1027.39
2023-02-27T05:00:53.478Z,1027.29
2023-02-27T05:01:24.238Z,1027.29
2023-02-27T05:01:55.204Z,1027.50
2023-02-27T05:02:27.188Z,1027.50
2023-02-27T05:02:58.600Z,1027.50
2023-02-27T05:03:28.910Z,1027.50
2023-02-27T05:04:01.193Z,1027.70
2023-02-27T05:04:31.268Z,1027.50
2023-02-27T05:05:32.928Z,1027.70
2023-02-27T05:06:04.219Z,1027.70
2023-02-27T05:07:05.486Z,1027.80
2023-02-27T05:07:35.920Z,1027.80
2023-02-27T05:08:08.051Z,1027.80
2023-02-27T05:08:40.341Z,1027.19
2023-02-27T05:09:11.500Z,1027.19
2023-02-27T05:09:41.753Z,1027.39
2023-02-27T05:10:12.564Z,1027.39
2023-02-27T05:10:43.522Z,1027.29
2023-02-27T05:11:13.013Z,1027.29
2023-02-27T05:11:43.660Z,1027.50
2023-02-27T05:12:15.014Z,1027.50
2023-02-27T05:12:45.765Z,1027.39
2023-02-27T05:13:18.687Z,1027.39
2023-02-27T05:13:48.833Z,1027.39
2023-02-27T05:14:20.259Z,1027.39
2023-02-27T05:14:51.390Z,1027.39
2023-02-27T05:15:23.422Z,1027.39
2023-02-27T05:15:53.059Z,1027.50
2023-02-27T05:16:23.321Z,1027.50
2023-02-27T05:16:53.892Z,1027.50
2023-02-27T05:17:25.169Z,1027.50
2023-02-27T05:18:07.742Z,1027.39
2023-02-27T05:18:27.734Z,1027.39
2023-02-27T05:18:57.750Z,1027.60
2023-02-27T05:19:29.791Z,1027.80
2023-02-27T05:20:01.824Z,1027.80
2023-02-27T05:20:32.889Z,1027.50
2023-02-27T05:21:03.694Z,1027.50
2023-02-27T05:21:33.072Z,1027.50
2023-02-27T05:22:04.288Z,1027.50
2023-02-27T05:22:35.690Z,1027.50
2023-02-27T05:23:07.339Z,1027.50
2023-02-27T05:23:37.716Z,1027.39
2023-02-27T05:24:08.441Z,1027.39
2023-02-27T05:24:41.135Z,1027.60
2023-02-27T05:25:12.869Z,1027.60
2023-02-27T05:26:13.917Z,1027.50
2023-02-27T05:26:43.599Z,1027.60
2023-02-27T05:27:13.888Z,1027.60
2023-02-27T05:28:02.693Z,1027.50
2023-02-27T05:28:16.755Z,1027.50
2023-02-27T05:28:48.143Z,1027.90
2023-02-27T05:29:18.862Z,1027.90
2023-02-27T05:29:50.169Z,1027.60
2023-02-27T05:30:22.132Z,1027.60
2023-02-27T05:30:52.212Z,1027.70
2023-02-27T05:31:22.883Z,1027.70
2023-02-27T05:31:53.095Z,1027.70
2023-02-27T05:32:24.649Z,1027.70
2023-02-27T05:33:27.147Z,1027.60
2023-02-27T05:33:58.613Z,1027.60
2023-02-27T05:34:28.929Z,1027.60
2023-02-27T05:35:00.142Z,1027.39
2023-02-27T05:35:31.852Z,1027.80
2023-02-27T05:36:02.624Z,1027.80
2023-02-27T05:36:32.988Z,1027.60
2023-02-27T05:37:03.410Z,1027.60
2023-02-27T05:37:34.297Z,1027.60
2023-02-27T05:38:05.331Z,1027.60
2023-02-27T05:38:36.708Z,1027.80
2023-02-27T05:39:07.285Z,1027.80
2023-02-27T05:39:38.381Z,1027.70
2023-02-27T05:40:10.687Z,1027.70
2023-02-27T05:40:41.628Z,1027.70
2023-02-27T05:41:11.807Z,1027.70
2023-02-27T05:41:42.199Z,1027.60
2023-02-27T05:42:12.941Z,1027.60
2023-02-27T05:42:44.095Z,1027.60
2023-02-27T05:43:15.067Z,1027.60
2023-02-27T05:43:47.031Z,1027.80
2023-02-27T05:44:19.084Z,1027.80
2023-02-27T05:44:49.687Z,1027.70
2023-02-27T05:45:21.176Z,1027.70
2023-02-27T05:45:51.949Z,1027.60
2023-02-27T05:46:21.756Z,1027.60
2023-02-27T05:46:52.570Z,1027.60
2023-02-27T05:47:23.395Z,1027.60
2023-02-27T05:47:54.366Z,1027.70
2023-02-27T05:48:25.346Z,1027.70
2023-02-27T05:48:56.184Z,1027.60
2023-02-27T05:49:28.154Z,1027.60
2023-02-27T05:49:59.344Z,1027.80
2023-02-27T05:50:30.185Z,1027.70
2023-02-27T05:51:00.729Z,1027.70
2023-02-27T05:51:32.345Z,1027.50
2023-02-27T05:52:02.866Z,1027.50
2023-02-27T05:52:33.239Z,1027.60
2023-02-27T05:53:04.570Z,1027.60
2023-02-27T05:53:35.906Z,1027.70
2023-02-27T05:54:06.419Z,1027.70
2023-02-27T05:54:38.326Z,1027.60
2023-02-27T05:55:09.607Z,1027.60
2023-02-27T05:55:40.661Z,1027.80
2023-02-27T05:56:10.927Z,1027.80
2023-02-27T05:56:42.387Z,1027.70
2023-02-27T05:57:12.535Z,1027.70
2023-02-27T05:58:14.344Z,1027.70
2023-02-27T05:58:45.223Z,1027.80
2023-02-27T05:59:16.256Z,1027.80
2023-02-27T05:59:48.690Z,1027.60
2023-02-27T06:00:19.955Z,1027.60
2023-02-27T06:00:50.007Z,1027.90
2023-02-27T06:01:21.228Z,1027.90
2023-02-27T06:01:52.129Z,1027.60
2023-02-27T06:02:56.988Z,1027.70
2023-02-27T06:03:24.166Z,1027.70
2023-02-27T06:03:55.313Z,1027.50
2023-02-27T06:04:26.561Z,1027.50
2023-02-27T06:04:58.054Z,1027.60
2023-02-27T06:05:29.171Z,1027.60
2023-02-27T06:05:59.867Z,1027.70
2023-02-27T06:06:30.917Z,1027.70
2023-02-27T06:07:01.729Z,1027.70
2023-02-27T06:07:31.912Z,1027.80
2023-02-27T06:08:14.725Z,1027.80
2023-02-27T06:08:54.144Z,1027.70
2023-02-27T06:09:06.204Z,1027.70
2023-02-27T06:09:39.069Z,1027.80
2023-02-27T06:10:08.907Z,1027.80
2023-02-27T06:10:56.307Z,1027.90
2023-02-27T06:11:10.764Z,1027.90
2023-02-27T06:12:12.394Z,1027.70
2023-02-27T06:12:43.491Z,1027.60
2023-02-27T06:13:13.420Z,1027.60
2023-02-27T06:13:45.754Z,1027.60
2023-02-27T06:14:40.226Z,1027.90
2023-02-27T06:14:46.894Z,1027.90
2023-02-27T06:15:22.849Z,1027.90
2023-02-27T06:15:49.924Z,1027.60
2023-02-27T06:16:21.828Z,1027.60
2023-02-27T06:16:51.600Z,1027.80
2023-02-27T06:17:22.210Z,1027.80
2023-02-27T06:17:52.680Z,1027.70
2023-02-27T06:18:25.876Z,1027.70
2023-02-27T06:18:56.277Z,1027.60
2023-02-27T06:19:25.649Z,1027.60
2023-02-27T06:19:57.506Z,1027.80
2023-02-27T06:20:32.172Z,1027.80
2023-02-27T06:21:12.191Z,1027.70
2023-02-27T06:21:30.722Z,1027.70
2023-02-27T06:22:02.360Z,1027.70
2023-02-27T06:22:32.277Z,1027.70
2023-02-27T06:23:08.565Z,1027.70
2023-02-27T06:23:34.440Z,1027.80
2023-02-27T06:24:04.853Z,1027.80
2023-02-27T06:24:35.565Z,1027.60
2023-02-27T06:25:32.585Z,1027.60
2023-02-27T06:25:38.115Z,1027.70
2023-02-27T06:26:11.046Z,1027.70
2023-02-27T06:26:48.788Z,1027.80
2023-02-27T06:27:11.285Z,1027.80
2023-02-27T06:27:43.109Z,1027.90
2023-02-27T06:28:13.066Z,1027.90
2023-02-27T06:28:43.161Z,1027.90
2023-02-27T06:29:14.290Z,1027.90
2023-02-27T06:30:06.866Z,1027.70
2023-02-27T06:30:46.458Z,1027.70
2023-02-27T06:31:19.483Z,1027.70
2023-02-27T06:31:50.947Z,1027.80
2023-02-27T06:32:20.799Z,1027.80
2023-02-27T06:32:55.001Z,1027.70
2023-02-27T06:33:24.130Z,1027.70
2023-02-27T06:33:55.658Z,1027.60
2023-02-27T06:34:24.766Z,1027.60
2023-02-27T06:35:03.670Z,1027.90
2023-02-27T06:35:34.975Z,1027.90
2023-02-27T06:35:57.600Z,1027.80
2023-02-27T06:36:30.828Z,1027.80
2023-02-27T06:37:02.664Z,1027.80
2023-02-27T06:37:31.304Z,1027.80
2023-02-27T06:38:06.013Z,1027.80
2023-02-27T06:39:05.664Z,1027.80
2023-02-27T06:39:34.287Z,1027.90
2023-02-27T06:40:09.241Z,1027.90
2023-02-27T06:40:53.468Z,1027.90
2023-02-27T06:41:08.550Z,1027.90
2023-02-27T06:42:08.135Z,1027.80
2023-02-27T06:42:42.889Z,1027.90
2023-02-27T06:43:12.532Z,1027.90
2023-02-27T06:43:43.076Z,1027.80
2023-02-27T06:44:15.403Z,1027.80
2023-02-27T06:44:44.290Z,1027.80
2023-02-27T06:45:15.734Z,1027.80
2023-02-27T06:45:49.440Z,1027.80
2023-02-27T06:46:18.071Z,1027.80
2023-02-27T06:46:53.709Z,1028.00
2023-02-27T06:47:20.539Z,1028.00
2023-02-27T06:47:51.398Z,1028.00
2023-02-27T06:48:42.446Z,1028.00
2023-02-27T06:48:57.300Z,1028.00
2023-02-27T06:49:28.517Z,1028.00
2023-02-27T06:49:54.948Z,1028.00
2023-02-27T06:50:31.553Z,1028.00
2023-02-27T06:50:56.463Z,1027.70
2023-02-27T06:51:39.545Z,1028.00
2023-02-27T06:52:11.442Z,1028.00
2023-02-27T06:52:30.363Z,1028.00
2023-02-27T06:53:01.775Z,1028.00
2023-02-27T06:53:32.127Z,1028.00
2023-02-27T06:54:14.290Z,1028.00
2023-02-27T06:54:33.270Z,1027.90
2023-02-27T06:55:04.697Z,1027.90
2023-02-27T06:56:37.504Z,1028.00
2023-02-27T06:57:40.260Z,1028.00
2023-02-27T06:58:11.123Z,1028.00
2023-02-27T07:03:29.948Z,1028.00
2023-02-27T07:06:20.790Z,1028.00
2023-02-27T07:08:18.617Z,1028.00
2023-02-27T07:08:31.488Z,1028.11
2023-02-27T07:09:06.497Z,1028.11
2023-02-27T07:09:33.325Z,1028.11
2023-02-27T07:10:35.553Z,1028.00
2023-02-27T07:11:05.718Z,1028.00
2023-02-27T07:11:39.320Z,1027.90
2023-02-27T07:12:08.537Z,1027.90
2023-02-27T07:12:40.068Z,1028.11
2023-02-27T07:13:11.139Z,1028.11